createdAt,value
2024-05-09T00:00:36.224Z,100.00
2024-05-09T00:03:10.877Z,100.00
2024-05-09T00:05:40.567Z,100.00
2024-05-09T00:08:09.095Z,100.00
2024-05-09T00:10:38.491Z,100.00
2024-05-09T00:13:07.487Z,100.00
2024-05-09T00:15:35.265Z,100.00
2024-05-09T00:18:03.142Z,100.00
2024-05-09T00:20:37.514Z,100.00
2024-05-09T00:23:07.762Z,100.00
2024-05-09T00:25:35.476Z,100.00
2024-05-09T00:28:02.426Z,100.00
2024-05-09T00:30:34.337Z,100.00
2024-05-09T00:33:04.880Z,100.00
2024-05-09T00:35:32.564Z,100.00
2024-05-09T00:37:59.742Z,100.00
2024-05-09T00:40:35.737Z,100.00
2024-05-09T00:43:06.605Z,100.00
2024-05-09T00:45:36.281Z,100.00
2024-05-09T00:48:09.423Z,100.00
2024-05-09T00:50:40.469Z,100.00
2024-05-09T00:53:09.076Z,100.00
2024-05-09T00:55:37.658Z,100.00
2024-05-09T00:58:06.627Z,100.00
2024-05-09T01:00:39.015Z,100.00
2024-05-09T01:03:09.764Z,100.00
2024-05-09T01:05:39.570Z,100.00
2024-05-09T01:08:07.290Z,100.00
2024-05-09T01:10:35.505Z,100.00
2024-05-09T01:13:03.963Z,100.00
2024-05-09T01:15:30.775Z,100.00
2024-05-09T01:17:58.768Z,100.00
2024-05-09T01:20:36.746Z,100.00
2024-05-09T01:23:09.432Z,100.00
2024-05-09T01:25:36.463Z,100.00
2024-05-09T01:28:03.101Z,100.00
2024-05-09T01:30:34.775Z,100.00
2024-05-09T01:33:05.244Z,100.00
2024-05-09T01:35:33.005Z,100.00
2024-05-09T01:37:59.899Z,100.00
2024-05-09T01:40:36.229Z,100.00
2024-05-09T01:43:05.814Z,100.00
2024-05-09T01:45:32.409Z,100.00
2024-05-09T01:47:59.306Z,100.00
2024-05-09T01:50:37.160Z,100.00
2024-05-09T01:53:07.756Z,100.00
2024-05-09T01:55:34.534Z,100.00
2024-05-09T01:58:01.204Z,100.00
2024-05-09T02:00:37.922Z,100.00
2024-05-09T02:03:15.639Z,100.00
2024-05-09T02:05:47.479Z,100.00
2024-05-09T02:08:17.315Z,100.00
2024-05-09T02:10:45.260Z,100.00
2024-05-09T02:13:13.158Z,100.00
2024-05-09T02:15:39.864Z,100.00
2024-05-09T02:18:08.084Z,100.00
2024-05-09T02:20:36.874Z,100.00
2024-05-09T02:23:06.183Z,100.00
2024-05-09T02:25:33.574Z,100.00
2024-05-09T02:28:00.322Z,100.00
2024-05-09T02:30:37.746Z,100.00
2024-05-09T02:33:08.214Z,100.00
2024-05-09T02:35:35.746Z,100.00
2024-05-09T02:38:02.454Z,100.00
2024-05-09T02:40:36.479Z,100.00
2024-05-09T02:43:06.339Z,100.00
2024-05-09T02:45:33.338Z,100.00
2024-05-09T02:48:00.507Z,100.00
2024-05-09T02:50:34.487Z,100.00
2024-05-09T02:53:05.687Z,100.00
2024-05-09T02:55:32.718Z,100.00
2024-05-09T02:57:59.516Z,100.00
2024-05-09T03:00:34.815Z,100.00
2024-05-09T03:03:08.507Z,100.00
2024-05-09T03:05:36.686Z,100.00
2024-05-09T03:08:04.128Z,100.00
2024-05-09T03:10:35.956Z,100.00
2024-05-09T03:13:13.196Z,100.00
2024-05-09T03:15:41.221Z,100.00
2024-05-09T03:18:08.572Z,100.00
2024-05-09T03:20:36.461Z,100.00
2024-05-09T03:23:05.379Z,100.00
2024-05-09T03:25:32.565Z,100.00
2024-05-09T03:27:59.687Z,100.00
2024-05-09T03:30:38.715Z,100.00
2024-05-09T03:33:18.070Z,100.00
2024-05-09T03:35:46.672Z,100.00
2024-05-09T03:38:13.930Z,100.00
2024-05-09T03:40:46.177Z,100.00
2024-05-09T03:43:13.432Z,100.00
2024-05-09T03:45:40.177Z,100.00
2024-05-09T03:48:07.369Z,100.00
2024-05-09T03:50:36.017Z,100.00
2024-05-09T03:53:03.723Z,100.00
2024-05-09T03:55:31.061Z,100.00
2024-05-09T03:57:57.790Z,100.00
2024-05-09T04:00:31.379Z,100.00
2024-05-09T04:03:05.931Z,100.00
2024-05-09T04:05:34.400Z,100.00
2024-05-09T04:08:01.486Z,100.00
2024-05-09T04:10:33.172Z,100.00
2024-05-09T04:13:01.670Z,100.00
2024-05-09T04:15:28.423Z,100.00
2024-05-09T04:17:55.331Z,100.00
2024-05-09T04:20:32.998Z,100.00
2024-05-09T04:23:06.002Z,100.00
2024-05-09T04:25:32.842Z,100.00
2024-05-09T04:27:59.480Z,100.00
2024-05-09T04:30:34.865Z,100.00
2024-05-09T04:33:07.125Z,100.00
2024-05-09T04:35:35.166Z,100.00
2024-05-09T04:38:01.994Z,100.00
2024-05-09T04:40:33.855Z,100.00
2024-05-09T04:43:03.568Z,100.00
2024-05-09T04:45:30.461Z,100.00
2024-05-09T04:47:57.502Z,100.00
2024-05-09T04:50:33.733Z,100.00
2024-05-09T04:53:05.024Z,100.00
2024-05-09T04:55:32.628Z,100.00
2024-05-09T04:57:59.200Z,100.00
2024-05-09T05:00:32.598Z,100.00
2024-05-09T05:03:09.225Z,100.00
2024-05-09T05:05:41.815Z,100.00
2024-05-09T05:08:13.243Z,100.00
2024-05-09T05:10:40.722Z,100.00
2024-05-09T05:13:16.670Z,100.00
2024-05-09T05:15:44.195Z,100.00
2024-05-09T05:18:10.903Z,100.00
2024-05-09T05:20:37.781Z,100.00
2024-05-09T05:23:08.769Z,100.00
2024-05-09T05:25:35.436Z,100.00
2024-05-09T05:28:02.052Z,100.00
2024-05-09T05:30:32.968Z,100.00
2024-05-09T05:33:01.586Z,100.00
2024-05-09T05:35:28.529Z,100.00
2024-05-09T05:37:55.294Z,100.00
2024-05-09T05:40:28.615Z,100.00
2024-05-09T05:43:03.386Z,100.00
2024-05-09T05:45:29.980Z,100.00
2024-05-09T05:47:56.948Z,100.00
2024-05-09T05:50:28.154Z,100.00
2024-05-09T05:53:02.035Z,100.00
2024-05-09T05:55:28.969Z,100.00
2024-05-09T05:57:55.595Z,100.00
2024-05-09T06:00:29.715Z,100.00
2024-05-09T06:03:04.568Z,100.00
2024-05-09T06:05:31.297Z,100.00
2024-05-09T06:07:58.050Z,100.00
2024-05-09T06:10:30.058Z,100.00
2024-05-09T06:13:03.981Z,100.00
2024-05-09T06:15:30.561Z,100.00
2024-05-09T06:17:57.361Z,100.00
2024-05-09T06:20:31.986Z,100.00
2024-05-09T06:23:03.444Z,100.00
2024-05-09T06:25:30.278Z,100.00
2024-05-09T06:27:56.938Z,100.00
2024-05-09T06:30:30.707Z,100.00
2024-05-09T06:33:05.703Z,100.00
2024-05-09T06:35:33.430Z,100.00
2024-05-09T06:38:00.503Z,100.00
2024-05-09T06:40:36.154Z,100.00
2024-05-09T06:43:05.789Z,100.00
2024-05-09T06:45:32.562Z,100.00
2024-05-09T06:47:59.471Z,100.00
2024-05-09T06:50:28.664Z,100.00
2024-05-09T06:53:02.575Z,100.00
2024-05-09T06:55:29.370Z,100.00
2024-05-09T06:57:56.043Z,100.00
2024-05-09T07:00:30.473Z,100.00
2024-05-09T07:03:12.635Z,100.00
2024-05-09T07:05:40.784Z,100.00
2024-05-09T07:08:07.650Z,100.00
2024-05-09T07:10:37.690Z,100.00
2024-05-09T07:13:15.070Z,100.00
2024-05-09T07:15:42.309Z,100.00
2024-05-09T07:18:15.521Z,100.00
2024-05-09T07:20:43.150Z,100.00
2024-05-09T07:23:10.905Z,100.00
2024-05-09T07:25:38.603Z,100.00
2024-05-09T07:28:05.805Z,100.00
2024-05-09T07:30:34.500Z,100.00
2024-05-09T07:33:03.106Z,100.00
2024-05-09T07:35:30.943Z,100.00
2024-05-09T07:37:58.063Z,100.00
2024-05-09T07:40:32.838Z,100.00
2024-05-09T07:43:13.091Z,100.00
2024-05-09T07:45:49.569Z,100.00
2024-05-09T07:53:38.582Z,100.00
2024-05-09T07:56:07.544Z,100.00
2024-05-09T07:58:34.547Z,100.00
2024-05-09T08:01:02.750Z,100.00
2024-05-09T08:03:29.601Z,100.00
2024-05-09T08:05:56.448Z,100.00
2024-05-09T08:08:23.421Z,100.00
2024-05-09T08:10:51.124Z,100.00
2024-05-09T08:13:17.988Z,100.00
2024-05-09T08:15:44.870Z,100.00
2024-05-09T08:18:12.128Z,100.00
2024-05-09T08:20:39.729Z,100.00
2024-05-09T08:23:06.641Z,100.00
2024-05-09T08:25:33.431Z,100.00
2024-05-09T08:28:00.127Z,100.00
2024-05-09T08:30:33.467Z,100.00
2024-05-09T08:33:04.623Z,100.00
2024-05-09T08:35:32.109Z,100.00
2024-05-09T08:37:59.103Z,100.00
2024-05-09T08:40:33.364Z,100.00
2024-05-09T08:43:06.765Z,100.00
2024-05-09T08:45:35.533Z,100.00
2024-05-09T08:48:06.268Z,100.00
2024-05-09T08:50:38.696Z,100.00
2024-05-09T08:53:07.174Z,100.00
2024-05-09T08:55:33.951Z,100.00
2024-05-09T08:58:01.792Z,100.00
2024-05-09T09:00:36.523Z,100.00
2024-05-09T09:03:06.776Z,100.00
2024-05-09T09:05:36.460Z,100.00
2024-05-09T09:08:06.622Z,100.00
2024-05-09T09:10:33.747Z,100.00
2024-05-09T09:13:04.999Z,100.00
2024-05-09T09:15:32.567Z,100.00
2024-05-09T09:18:00.743Z,100.00
2024-05-09T09:20:35.687Z,100.00
2024-05-09T09:23:04.313Z,100.00
2024-05-09T09:25:31.658Z,100.00
2024-05-09T09:27:58.820Z,100.00
2024-05-09T09:30:36.254Z,100.00
2024-05-09T09:33:06.263Z,100.00
2024-05-09T09:35:33.815Z,100.00
2024-05-09T09:38:03.134Z,100.00
2024-05-09T09:40:42.518Z,100.00
2024-05-09T09:43:20.109Z,100.00
2024-05-09T09:45:50.603Z,100.00
2024-05-09T09:48:17.714Z,100.00
2024-05-09T09:50:45.482Z,100.00
2024-05-09T09:53:13.643Z,100.00
2024-05-09T09:55:40.684Z,100.00
2024-05-09T09:58:09.780Z,100.00
2024-05-09T10:00:39.081Z,100.00
2024-05-09T10:03:05.981Z,100.00
2024-05-09T10:05:34.354Z,100.00
2024-05-09T10:08:06.934Z,96.63
2024-05-09T10:10:36.444Z,100.00
2024-05-09T10:13:07.480Z,99.41
2024-05-09T10:15:45.652Z,75.90
2024-05-09T10:18:12.826Z,87.93
2024-05-09T10:20:46.742Z,74.47
2024-05-09T10:23:30.168Z,67.15
2024-05-09T10:26:06.426Z,61.66
2024-05-09T10:28:35.663Z,72.36
2024-05-09T10:31:10.525Z,57.72
2024-05-09T10:33:51.857Z,67.58
2024-05-09T10:36:25.654Z,62.29
2024-05-09T10:38:53.878Z,66.29
2024-05-09T10:41:21.676Z,66.48
2024-05-09T10:43:48.978Z,62.67
2024-05-09T10:46:16.512Z,61.18
2024-05-09T10:48:44.420Z,61.83
2024-05-09T10:51:11.634Z,59.68
2024-05-09T10:53:42.568Z,57.07
2024-05-09T10:56:09.729Z,57.62
2024-05-09T10:58:36.793Z,55.70
2024-05-09T11:01:06.855Z,54.54
2024-05-09T11:03:34.739Z,55.73
2024-05-09T11:06:01.717Z,53.58
2024-05-09T11:08:29.308Z,53.80
2024-05-09T11:10:56.539Z,53.10
2024-05-09T11:13:33.615Z,50.24
2024-05-09T11:16:00.890Z,53.82
2024-05-09T11:18:33.269Z,52.71
2024-05-09T11:21:02.861Z,52.50
2024-05-09T11:23:32.453Z,51.24
2024-05-09T11:25:59.334Z,49.60
2024-05-09T11:28:28.573Z,48.26
2024-05-09T11:33:37.080Z,46.60
2024-05-09T11:36:04.254Z,46.80
2024-05-09T11:38:31.196Z,46.54
2024-05-09T11:40:57.825Z,45.43
2024-05-09T11:43:24.467Z,45.79
2024-05-09T11:45:51.255Z,44.33
2024-05-09T11:48:17.880Z,44.46
2024-05-09T11:50:44.511Z,43.54
2024-05-09T11:53:12.185Z,42.32
2024-05-09T11:55:38.875Z,41.65
2024-05-09T11:58:05.869Z,41.59
2024-05-09T12:00:36.929Z,41.59
2024-05-09T12:03:05.773Z,41.94
2024-05-09T12:05:34.021Z,41.87
2024-05-09T12:08:01.164Z,42.00
2024-05-09T12:10:33.298Z,42.30
2024-05-09T12:13:03.491Z,42.14
2024-05-09T12:15:31.654Z,41.89
2024-05-09T12:18:01.476Z,40.67
2024-05-09T12:20:36.575Z,40.20
2024-05-09T12:23:05.810Z,40.51
2024-05-09T12:25:32.504Z,39.24
2024-05-09T12:27:59.514Z,38.88
2024-05-09T12:30:35.298Z,38.32
2024-05-09T12:33:05.819Z,37.80
2024-05-09T12:35:35.744Z,37.04
2024-05-09T12:38:02.614Z,36.79
2024-05-09T12:40:36.243Z,38.86
2024-05-09T12:43:09.152Z,37.35
2024-05-09T12:45:37.262Z,37.77
2024-05-09T12:48:06.865Z,37.31
2024-05-09T12:50:34.660Z,36.88
2024-05-09T12:53:02.751Z,37.27
2024-05-09T12:55:36.432Z,37.10
2024-05-09T12:58:08.837Z,36.75
2024-05-09T13:00:35.966Z,36.28
2024-05-09T13:03:03.090Z,35.78
2024-05-09T13:05:30.140Z,35.74
2024-05-09T13:07:57.345Z,35.86
2024-05-09T13:10:31.150Z,34.85
2024-05-09T13:13:00.771Z,35.23
2024-05-09T13:15:28.182Z,34.96
2024-05-09T13:17:57.146Z,35.43
2024-05-09T13:20:31.980Z,36.22
2024-05-09T13:23:05.904Z,35.46
2024-05-09T13:25:34.921Z,35.83
2024-05-09T13:28:02.389Z,35.44
2024-05-09T13:30:38.255Z,35.27
2024-05-09T13:33:08.741Z,35.69
2024-05-09T13:35:36.151Z,35.24
2024-05-09T13:38:04.786Z,35.46
2024-05-09T13:40:34.823Z,35.35
2024-05-09T13:43:06.684Z,34.20
2024-05-09T13:45:34.323Z,35.01
2024-05-09T13:48:02.541Z,34.88
2024-05-09T13:50:35.916Z,35.20
2024-05-09T13:53:07.914Z,35.81
2024-05-09T13:55:38.936Z,33.33
2024-05-09T13:58:06.446Z,33.93
2024-05-09T14:00:43.890Z,33.52
2024-05-09T14:03:15.910Z,33.04
2024-05-09T14:05:43.162Z,33.50
2024-05-09T14:08:10.076Z,34.10
2024-05-09T14:10:43.367Z,33.45
2024-05-09T14:13:10.355Z,33.08
2024-05-09T14:15:37.647Z,32.65
2024-05-09T14:18:04.698Z,32.18
2024-05-09T14:20:32.465Z,33.22
2024-05-09T14:23:00.768Z,33.41
2024-05-09T14:25:28.785Z,33.98
2024-05-09T14:27:57.501Z,34.17
2024-05-09T14:30:31.029Z,34.53
2024-05-09T14:33:03.643Z,35.18
2024-05-09T14:35:30.414Z,34.96
2024-05-09T14:37:57.138Z,35.24
2024-05-09T14:42:53.341Z,35.97
2024-05-09T14:45:19.966Z,36.46
2024-05-09T14:47:46.846Z,36.88
2024-05-09T14:50:19.647Z,36.55
2024-05-09T14:52:54.239Z,37.07
2024-05-09T14:55:20.935Z,37.33
2024-05-09T14:57:47.624Z,36.48
2024-05-09T15:00:21.398Z,35.74
2024-05-09T15:02:53.102Z,35.05
2024-05-09T15:05:19.842Z,34.44
2024-05-09T15:07:46.581Z,33.99
2024-05-09T15:10:20.401Z,33.38
2024-05-09T15:12:50.681Z,32.85
2024-05-09T15:15:18.006Z,31.89
2024-05-09T15:17:45.052Z,31.34
2024-05-09T15:20:17.295Z,30.75
2024-05-09T15:22:47.035Z,31.41
2024-05-09T15:25:13.876Z,31.06
2024-05-09T15:27:40.685Z,32.04
2024-05-09T15:30:10.727Z,32.21
2024-05-09T15:32:37.706Z,31.73
2024-05-09T15:35:05.507Z,32.34
2024-05-09T15:37:32.440Z,32.91
2024-05-09T15:39:59.247Z,33.14
2024-05-09T15:42:25.897Z,34.07
2024-05-09T15:44:53.143Z,34.21
2024-05-09T15:47:20.383Z,33.09
2024-05-09T15:49:47.840Z,33.45
2024-05-09T15:52:17.681Z,32.21
2024-05-09T15:54:44.401Z,32.14
2024-05-09T15:57:11.756Z,31.52
2024-05-09T15:59:38.608Z,31.30
2024-05-09T16:02:05.971Z,31.24
2024-05-09T16:04:32.869Z,30.86
2024-05-09T16:06:59.645Z,31.33
2024-05-09T16:09:26.311Z,31.15
2024-05-09T16:11:52.949Z,31.30
2024-05-09T16:14:19.537Z,31.31
2024-05-09T16:16:46.775Z,31.54
2024-05-09T16:19:13.765Z,32.08
2024-05-09T16:21:40.448Z,31.83
2024-05-09T16:24:07.038Z,32.47
2024-05-09T16:26:33.689Z,32.86
2024-05-09T16:29:00.356Z,32.86
2024-05-09T16:31:27.158Z,32.91
2024-05-09T16:33:53.924Z,33.58
2024-05-09T16:36:20.784Z,33.78
2024-05-09T16:38:47.418Z,33.61
2024-05-09T16:41:15.535Z,34.00
2024-05-09T16:43:42.135Z,34.90
2024-05-09T16:46:09.065Z,35.74
2024-05-09T16:48:37.143Z,35.21
2024-05-09T16:51:03.894Z,34.97
2024-05-09T16:53:30.495Z,34.83
2024-05-09T16:56:01.914Z,35.43
2024-05-09T16:58:29.118Z,35.92
2024-05-09T17:00:55.923Z,36.36
2024-05-09T17:03:23.653Z,36.74
2024-05-09T17:05:50.752Z,37.30
2024-05-09T17:08:20.469Z,38.07
2024-05-09T17:10:50.492Z,38.46
2024-05-09T17:13:17.503Z,39.19
2024-05-09T17:15:44.434Z,39.75
2024-05-09T17:18:11.214Z,40.40
2024-05-09T17:20:38.134Z,40.29
2024-05-09T17:23:12.316Z,40.80
2024-05-09T17:25:39.746Z,41.84
2024-05-09T17:28:08.690Z,43.21
2024-05-09T17:30:38.201Z,43.64
2024-05-09T17:33:08.417Z,43.87
2024-05-09T17:35:36.321Z,44.30
2024-05-09T17:38:03.743Z,45.06
2024-05-09T17:40:33.998Z,45.55
2024-05-09T17:43:04.067Z,46.93
2024-05-09T17:45:31.607Z,48.24
2024-05-09T17:47:58.813Z,49.18
2024-05-09T17:50:31.663Z,49.99
2024-05-09T17:53:02.603Z,51.36
2024-05-09T17:55:29.587Z,52.97
2024-05-09T17:57:56.505Z,55.02
2024-05-09T18:00:33.239Z,55.98
2024-05-09T18:03:05.715Z,57.68
2024-05-09T18:05:32.619Z,59.48
2024-05-09T18:07:59.520Z,62.97
2024-05-09T18:10:33.165Z,66.48
2024-05-09T18:13:05.245Z,67.94
2024-05-09T18:15:32.255Z,68.27
2024-05-09T18:18:02.462Z,70.05
2024-05-09T18:20:38.076Z,71.53
2024-05-09T18:23:10.587Z,74.34
2024-05-09T18:25:37.318Z,76.56
2024-05-09T18:28:04.752Z,77.74
2024-05-09T18:30:35.162Z,78.64
2024-05-09T18:33:05.426Z,80.81
2024-05-09T18:35:33.419Z,81.58
2024-05-09T18:38:00.402Z,83.44
2024-05-09T18:40:33.650Z,84.35
2024-05-09T18:43:06.149Z,86.12
2024-05-09T18:45:34.347Z,86.94
2024-05-09T18:48:01.383Z,87.70
2024-05-09T18:50:34.630Z,89.95
2024-05-09T18:53:08.575Z,95.01
2024-05-09T18:55:35.499Z,92.51
2024-05-09T18:58:02.860Z,93.12
2024-05-09T19:00:35.406Z,92.88
2024-05-09T19:03:09.459Z,94.62
2024-05-09T19:05:38.781Z,97.50
2024-05-09T19:08:06.124Z,98.73
2024-05-09T19:10:34.970Z,100.00
2024-05-09T19:13:08.041Z,100.00
2024-05-09T19:15:38.395Z,100.00
2024-05-09T19:18:06.129Z,100.00
2024-05-09T19:20:35.239Z,100.00
2024-05-09T19:23:03.534Z,100.00
2024-05-09T19:25:30.430Z,100.00
2024-05-09T19:27:57.207Z,100.00
2024-05-09T19:30:32.888Z,100.00
2024-05-09T19:33:05.817Z,100.00
2024-05-09T19:35:32.984Z,100.00
2024-05-09T19:37:59.987Z,100.00
2024-05-09T19:40:31.506Z,100.00
2024-05-09T19:43:01.148Z,100.00
2024-05-09T19:45:28.150Z,100.00
2024-05-09T19:47:55.430Z,100.00
2024-05-09T19:50:30.824Z,100.00
2024-05-09T19:53:04.043Z,100.00
2024-05-09T19:55:30.750Z,100.00
2024-05-09T19:57:58.239Z,100.00
2024-05-09T20:00:32.664Z,100.00
2024-05-09T20:03:02.785Z,100.00
2024-05-09T20:05:32.785Z,100.00
2024-05-09T20:07:59.807Z,100.00
2024-05-09T20:10:31.054Z,100.00
2024-05-09T20:12:59.711Z,100.00
2024-05-09T20:15:26.601Z,100.00
2024-05-09T20:17:53.774Z,100.00
2024-05-09T20:20:28.681Z,100.00
2024-05-09T20:23:03.303Z,100.00
2024-05-09T20:25:29.970Z,100.00
2024-05-09T20:27:56.671Z,100.00
2024-05-09T20:30:30.586Z,100.00
2024-05-09T20:32:59.514Z,100.00
2024-05-09T20:35:26.767Z,100.00
2024-05-09T20:37:53.722Z,100.00
2024-05-09T20:40:28.399Z,100.00
2024-05-09T20:42:59.368Z,100.00
2024-05-09T20:45:26.399Z,100.00
2024-05-09T20:47:53.337Z,100.00
2024-05-09T20:50:28.539Z,100.00
2024-05-09T20:53:03.089Z,100.00
2024-05-09T20:55:30.065Z,100.00
2024-05-09T20:57:57.451Z,100.00
2024-05-09T21:00:33.754Z,100.00
2024-05-09T21:03:06.305Z,100.00
2024-05-09T21:05:33.696Z,100.00
2024-05-09T21:08:00.698Z,100.00
2024-05-09T21:10:31.565Z,100.00
2024-05-09T21:12:59.762Z,100.00
2024-05-09T21:15:26.341Z,100.00
2024-05-09T21:17:53.038Z,100.00
2024-05-09T21:20:24.304Z,100.00
2024-05-09T21:22:57.982Z,100.00
2024-05-09T21:25:24.777Z,100.00
2024-05-09T21:27:51.558Z,100.00
2024-05-09T21:30:27.369Z,100.00
2024-05-09T21:32:59.922Z,100.00
2024-05-09T21:35:26.673Z,100.00
2024-05-09T21:37:53.316Z,100.00
2024-05-09T21:40:27.345Z,100.00
2024-05-09T21:43:00.931Z,100.00
2024-05-09T21:45:27.791Z,100.00
2024-05-09T21:47:54.722Z,100.00
2024-05-09T21:50:28.048Z,100.00
2024-05-09T21:52:59.099Z,100.00
2024-05-09T21:55:25.781Z,100.00
2024-05-09T21:57:52.555Z,100.00
2024-05-09T22:00:28.799Z,100.00
2024-05-09T22:03:02.144Z,100.00
2024-05-09T22:05:29.218Z,100.00
2024-05-09T22:07:56.997Z,100.00
2024-05-09T22:10:30.534Z,100.00
2024-05-09T22:13:00.974Z,100.00
2024-05-09T22:15:30.384Z,100.00
2024-05-09T22:17:57.605Z,100.00
2024-05-09T22:20:33.502Z,100.00
2024-05-09T22:23:04.209Z,100.00
2024-05-09T22:25:32.122Z,100.00
2024-05-09T22:27:59.977Z,100.00
2024-05-09T22:30:34.660Z,100.00
2024-05-09T22:33:05.837Z,100.00
2024-05-09T22:35:32.992Z,100.00
2024-05-09T22:37:59.812Z,100.00
2024-05-09T22:40:38.172Z,100.00
2024-05-09T22:43:12.916Z,100.00
2024-05-09T22:45:39.861Z,100.00
2024-05-09T22:48:07.990Z,100.00
2024-05-09T22:50:34.823Z,100.00
2024-05-09T22:53:01.486Z,100.00
2024-05-09T22:55:28.443Z,100.00
2024-05-09T22:57:55.208Z,100.00
2024-05-09T23:00:29.465Z,100.00
2024-05-09T23:03:02.289Z,100.00
2024-05-09T23:05:29.382Z,100.00
2024-05-09T23:07:56.198Z,100.00
2024-05-09T23:10:30.914Z,100.00
2024-05-09T23:13:01.947Z,100.00
2024-05-09T23:15:29.306Z,100.00
2024-05-09T23:17:56.270Z,100.00
2024-05-09T23:20:33.252Z,100.00
2024-05-09T23:23:05.151Z,100.00
2024-05-09T23:25:31.852Z,100.00
2024-05-09T23:27:58.774Z,100.00
2024-05-09T23:30:33.996Z,100.00
2024-05-09T23:33:05.958Z,100.00
2024-05-09T23:35:32.738Z,100.00
2024-05-09T23:37:59.633Z,100.00
2024-05-09T23:40:37.027Z,100.00
2024-05-09T23:43:07.164Z,100.00
2024-05-09T23:45:34.092Z,100.00
2024-05-09T23:48:01.303Z,100.00
2024-05-09T23:50:34.507Z,100.00
2024-05-09T23:53:05.103Z,100.00
2024-05-09T23:55:32.400Z,100.00
2024-05-09T23:57:59.754Z,100.00
